West Palm Beach, FL

10:09 AM EST on February 28, 2015 (GMT -0500)
APRSWXNET West Palm Beach FL US | Change Station
CLOSE
Current Station
Personal Weather Station
Location: West Palm Beach, FL
Elevation: 16 ft
Nearby Weather Stations

Elev 16 ft 26.72 °N, 80.16 °W | Updated 37 minutes ago

Mostly Cloudy
Mostly Cloudy
77 °F
Feels Like 79 °F
N
8
Wind Variable Wind from East
Gusts 17.0 mph

Today
High -- | Low -- °F
--% Chance of Precip.
Yesterday
High -- | Low -- °F
Precip. -- in
6:45 AM 6:21 PM
Waxing Gibbous, 78% visible
Pressure 30.27 in
Visibility 10.0 miles
Clouds Few 1800 ft
Mostly Cloudy 2400 ft
Mostly Cloudy 4400 ft
Heat Index 79 °F
Dew Point 71 °F
Humidity 82%
Rainfall 0.03 in
Snow Depth Not available.
UV 3 out of 12
Pollen 6.10 out of 12
Air Quality Not available.
Flu Activity Not available.
METAR KPBI 281453Z 10014KT 10SM FEW018 BKN024 BKN044 25/21 A3027 RMK AO2 SLP249 T02500211 53022

More Conditions Fewer Conditions

Pressure 30.27 in
Visibility 10.0 miles
Clouds Few 1800 ft
Mostly Cloudy 2400 ft
Mostly Cloudy 4400 ft
Heat Index 79 °F
Dew Point 71 °F
Humidity 82%
Rainfall 0.03 in
Snow Depth Not available.
UV 3 out of 12
Pollen 6.10 out of 12
Air Quality Not available.
Flu Activity Not available.
METAR KPBI 281453Z 10014KT 10SM FEW018 BKN024 BKN044 25/21 A3027 RMK AO2 SLP249 T02500211 53022

More Conditions Fewer Conditions

Nowcast | as of 8:52 am EST on February 28, 2015

Areas of light to moderate rain with embedded scattered showers will impact coastal and Metro sections of Broward County through the next hour or two bringing brief periods of heavy downpours across affected coastal communities. An isolated waterspout along the adjacent coastal waters cannot be ruled out either. Boaters are advised to exercise caution.

×

10-Day Weather Forecast

Almanac

Astronomy

Feb. 28, 2015 Rise Set
Actual Time
Civil Twilight
Nautical Twilight
Astronomical Twilight
Moon
Length of Visible Light
Length of Day
Tomorrow will be .
, % of the Moon is Illuminated

Today's Extremes

State Highs State Lows

Community

WunderPhotos

Upload Photos

1,801,030 photos uploaded!

WunderBlogs® & News

Nearby

Air Quality

  Air Quality AQ Index Pollutant
Not available.

Snow Depth

Station Depth Elevation

Earthquake Activity

City Distance Mag. Time & Date
Minimum magnitude displayed is 2.5.

Coastal Water Temperatures

Place Temperature

Nearby Weather Stations